sensor_id;sensor_type;location;lat;lon;timestamp;pressure;altitude;pressure_sealevel;temperature;humidity
60258;BME280;46115;44.484;11.314;2023-05-23T00:03:30;100050.91;;;17.48;98.09
60258;BME280;46115;44.484;11.314;2023-05-23T00:07:33;100059.88;;;17.47;98.28
60258;BME280;46115;44.484;11.314;2023-05-23T00:11:35;100062.84;;;17.33;99.48
60258;BME280;46115;44.484;11.314;2023-05-23T00:15:39;100062.31;;;17.18;99.37
60258;BME280;46115;44.484;11.314;2023-05-23T00:19:42;100058.84;;;17.06;100.00
60258;BME280;46115;44.484;11.314;2023-05-23T00:23:45;100061.59;;;17.16;98.92
60258;BME280;46115;44.484;11.314;2023-05-23T00:27:48;100062.75;;;17.02;100.00
60258;BME280;46115;44.484;11.314;2023-05-23T00:31:51;100066.25;;;17.03;100.00
60258;BME280;46115;44.484;11.314;2023-05-23T00:35:54;100053.28;;;16.87;100.00
60258;BME280;46115;44.484;11.314;2023-05-23T00:39:57;100054.53;;;16.83;100.00
60258;BME280;46115;44.484;11.314;2023-05-23T00:43:59;100054.69;;;17.13;98.86
60258;BME280;46115;44.484;11.314;2023-05-23T00:48:03;100021.44;;;16.74;99.82
60258;BME280;46115;44.484;11.314;2023-05-23T00:52:06;100054.22;;;17.08;99.17
60258;BME280;46115;44.484;11.314;2023-05-23T00:56:08;100060.53;;;16.96;99.21
60258;BME280;46115;44.484;11.314;2023-05-23T01:00:13;100045.53;;;16.84;100.00
60258;BME280;46115;44.484;11.314;2023-05-23T01:04:17;100063.25;;;16.85;100.00
60258;BME280;46115;44.484;11.314;2023-05-23T01:08:21;100053.34;;;16.76;100.00
60258;BME280;46115;44.484;11.314;2023-05-23T01:12:29;100055.88;;;16.55;100.00
60258;BME280;46115;44.484;11.314;2023-05-23T01:16:38;100047.88;;;16.44;100.00
60258;BME280;46115;44.484;11.314;2023-05-23T01:20:49;100068.47;;;16.53;100.00
60258;BME280;46115;44.484;11.314;2023-05-23T01:24:56;100068.13;;;16.46;100.00
60258;BME280;46115;44.484;11.314;2023-05-23T01:29:08;100059.53;;;16.32;100.00
60258;BME280;46115;44.484;11.314;2023-05-23T01:33:14;100064.25;;;16.39;100.00
60258;BME280;46115;44.484;11.314;2023-05-23T01:37:18;100061.09;;;16.45;100.00
60258;BME280;46115;44.484;11.314;2023-05-23T01:41:21;100064.84;;;16.54;100.00
60258;BME280;46115;44.484;11.314;2023-05-23T01:45:26;100062.78;;;16.58;100.00
60258;BME280;46115;44.484;11.314;2023-05-23T01:49:29;100063.78;;;16.68;100.00
60258;BME280;46115;44.484;11.314;2023-05-23T01:53:33;100061.44;;;16.63;100.00
60258;BME280;46115;44.484;11.314;2023-05-23T01:57:37;100057.09;;;16.51;100.00
60258;BME280;46115;44.484;11.314;2023-05-23T02:01:42;100051.16;;;16.47;100.00
60258;BME280;46115;44.484;11.314;2023-05-23T02:05:44;100053.94;;;16.23;100.00
60258;BME280;46115;44.484;11.314;2023-05-23T02:09:47;100048.00;;;16.20;100.00
60258;BME280;46115;44.484;11.314;2023-05-23T02:13:49;100048.50;;;16.36;100.00
60258;BME280;46115;44.484;11.314;2023-05-23T02:17:53;100047.03;;;15.99;100.00
60258;BME280;46115;44.484;11.314;2023-05-23T02:21:55;100036.13;;;16.02;100.00
60258;BME280;46115;44.484;11.314;2023-05-23T02:25:58;100044.38;;;16.10;100.00
60258;BME280;46115;44.484;11.314;2023-05-23T02:30:01;100034.53;;;16.21;100.00
60258;BME280;46115;44.484;11.314;2023-05-23T02:34:05;100040.63;;;16.01;100.00
60258;BME280;46115;44.484;11.314;2023-05-23T02:38:08;100039.53;;;16.15;100.00
60258;BME280;46115;44.484;11.314;2023-05-23T02:42:10;100038.66;;;16.14;100.00
60258;BME280;46115;44.484;11.314;2023-05-23T02:46:12;100046.56;;;16.05;100.00
60258;BME280;46115;44.484;11.314;2023-05-23T02:50:16;100049.19;;;15.94;100.00
60258;BME280;46115;44.484;11.314;2023-05-23T02:54:19;100032.34;;;15.93;100.00
60258;BME280;46115;44.484;11.314;2023-05-23T02:58:21;99996.34;;;15.65;100.00
60258;BME280;46115;44.484;11.314;2023-05-23T03:02:24;100043.84;;;15.94;100.00
60258;BME280;46115;44.484;11.314;2023-05-23T03:06:28;100039.72;;;15.89;100.00
60258;BME280;46115;44.484;11.314;2023-05-23T03:10:34;100051.13;;;15.91;100.00
60258;BME280;46115;44.484;11.314;2023-05-23T03:14:36;100037.09;;;16.01;100.00
60258;BME280;46115;44.484;11.314;2023-05-23T03:18:38;100041.56;;;15.89;100.00
60258;BME280;46115;44.484;11.314;2023-05-23T03:22:43;100049.41;;;15.90;100.00
60258;BME280;46115;44.484;11.314;2023-05-23T03:26:45;100056.06;;;15.74;100.00
60258;BME280;46115;44.484;11.314;2023-05-23T03:30:48;100063.47;;;15.70;100.00
60258;BME280;46115;44.484;11.314;2023-05-23T03:34:51;100049.66;;;15.52;100.00
60258;BME280;46115;44.484;11.314;2023-05-23T03:38:55;100053.41;;;15.74;100.00
60258;BME280;46115;44.484;11.314;2023-05-23T03:43:01;100026.16;;;15.35;100.00
60258;BME280;46115;44.484;11.314;2023-05-23T03:47:05;100054.38;;;15.49;100.00
60258;BME280;46115;44.484;11.314;2023-05-23T03:51:09;100057.75;;;15.64;100.00
60258;BME280;46115;44.484;11.314;2023-05-23T03:55:15;100040.41;;;15.58;100.00
60258;BME280;46115;44.484;11.314;2023-05-23T03:59:22;100064.38;;;15.58;100.00
60258;BME280;46115;44.484;11.314;2023-05-23T04:03:24;100052.94;;;15.56;100.00
60258;BME280;46115;44.484;11.314;2023-05-23T04:07:27;100060.81;;;15.57;100.00
60258;BME280;46115;44.484;11.314;2023-05-23T04:11:31;100056.06;;;15.63;100.00
60258;BME280;46115;44.484;11.314;2023-05-23T04:15:34;100039.97;;;15.51;100.00
60258;BME280;46115;44.484;11.314;2023-05-23T04:19:46;100068.78;;;15.70;100.00
60258;BME280;46115;44.484;11.314;2023-05-23T04:23:49;100062.22;;;15.63;100.00
60258;BME280;46115;44.484;11.314;2023-05-23T04:27:53;100046.28;;;15.85;100.00
60258;BME280;46115;44.484;11.314;2023-05-23T04:31:57;100055.59;;;15.91;100.00
60258;BME280;46115;44.484;11.314;2023-05-23T04:35:59;100064.13;;;16.18;100.00
60258;BME280;46115;44.484;11.314;2023-05-23T04:40:03;100045.34;;;16.20;99.02
60258;BME280;46115;44.484;11.314;2023-05-23T04:44:26;100057.22;;;16.27;98.53
60258;BME280;46115;44.484;11.314;2023-05-23T04:48:54;100051.50;;;16.65;95.80
60258;BME280;46115;44.484;11.314;2023-05-23T04:52:56;100061.94;;;16.79;95.21
60258;BME280;46115;44.484;11.314;2023-05-23T04:56:59;100059.03;;;17.14;92.59
60258;BME280;46115;44.484;11.314;2023-05-23T05:01:04;100066.28;;;17.24;92.08
60258;BME280;46115;44.484;11.314;2023-05-23T05:05:09;100066.00;;;17.38;90.67
60258;BME280;46115;44.484;11.314;2023-05-23T05:09:12;100056.63;;;17.64;88.79
60258;BME280;46115;44.484;11.314;2023-05-23T05:13:16;100065.63;;;17.74;88.71
60258;BME280;46115;44.484;11.314;2023-05-23T05:17:25;100048.03;;;17.61;88.27
60258;BME280;46115;44.484;11.314;2023-05-23T05:21:42;100061.03;;;18.07;87.26
60258;BME280;46115;44.484;11.314;2023-05-23T05:25:45;100064.69;;;18.06;87.24
60258;BME280;46115;44.484;11.314;2023-05-23T05:29:48;100060.94;;;18.18;86.55
60258;BME280;46115;44.484;11.314;2023-05-23T05:33:52;100062.63;;;18.50;85.62
60258;BME280;46115;44.484;11.314;2023-05-23T05:37:55;100050.38;;;18.57;84.01
60258;BME280;46115;44.484;11.314;2023-05-23T05:41:58;100063.53;;;18.69;83.88
60258;BME280;46115;44.484;11.314;2023-05-23T05:46:04;100071.63;;;18.79;83.35
60258;BME280;46115;44.484;11.314;2023-05-23T05:50:09;100071.78;;;18.87;82.91
60258;BME280;46115;44.484;11.314;2023-05-23T05:54:12;100069.84;;;19.28;81.46
60258;BME280;46115;44.484;11.314;2023-05-23T05:58:14;100054.06;;;19.35;80.25
60258;BME280;46115;44.484;11.314;2023-05-23T06:02:26;100069.59;;;19.70;79.67
60258;BME280;46115;44.484;11.314;2023-05-23T06:06:30;100074.50;;;19.93;78.17
60258;BME280;46115;44.484;11.314;2023-05-23T06:10:33;100067.81;;;20.07;77.04
60258;BME280;46115;44.484;11.314;2023-05-23T06:14:36;100070.94;;;20.12;76.25
60258;BME280;46115;44.484;11.314;2023-05-23T06:18:38;100076.16;;;20.14;76.05
60258;BME280;46115;44.484;11.314;2023-05-23T06:22:42;100079.19;;;20.29;74.91
60258;BME280;46115;44.484;11.314;2023-05-23T06:26:44;100071.66;;;20.51;74.37
60258;BME280;46115;44.484;11.314;2023-05-23T06:30:47;100078.47;;;20.73;73.56
60258;BME280;46115;44.484;11.314;2023-05-23T06:34:49;100076.69;;;20.92;73.28
60258;BME280;46115;44.484;11.314;2023-05-23T06:38:53;100067.47;;;21.12;71.85
60258;BME280;46115;44.484;11.314;2023-05-23T06:42:57;100071.66;;;21.42;71.22
60258;BME280;46115;44.484;11.314;2023-05-23T06:47:13;100078.09;;;21.67;70.16
60258;BME280;46115;44.484;11.314;2023-05-23T06:51:15;100067.19;;;21.86;70.24
60258;BME280;46115;44.484;11.314;2023-05-23T06:55:20;100075.75;;;22.33;68.24
60258;BME280;46115;44.484;11.314;2023-05-23T06:59:24;100078.09;;;22.36;68.83
60258;BME280;46115;44.484;11.314;2023-05-23T07:03:27;100074.19;;;22.57;67.97
60258;BME280;46115;44.484;11.314;2023-05-23T07:07:34;100077.91;;;23.06;67.35
60258;BME280;46115;44.484;11.314;2023-05-23T07:11:37;100075.41;;;23.13;66.80
60258;BME280;46115;44.484;11.314;2023-05-23T07:15:42;100084.44;;;23.94;64.24
60258;BME280;46115;44.484;11.314;2023-05-23T07:19:48;100079.22;;;24.65;62.88
60258;BME280;46115;44.484;11.314;2023-05-23T07:23:50;100079.22;;;24.56;61.53
60258;BME280;46115;44.484;11.314;2023-05-23T07:27:55;100060.94;;;25.29;59.16
60258;BME280;46115;44.484;11.314;2023-05-23T07:31:58;100091.56;;;25.52;56.19
60258;BME280;46115;44.484;11.314;2023-05-23T07:36:03;100086.50;;;25.95;56.17
60258;BME280;46115;44.484;11.314;2023-05-23T07:40:06;100093.28;;;26.28;53.72
60258;BME280;46115;44.484;11.314;2023-05-23T07:44:11;100099.19;;;27.42;50.95
60258;BME280;46115;44.484;11.314;2023-05-23T07:48:14;100063.59;;;26.64;52.48
60258;BME280;46115;44.484;11.314;2023-05-23T07:52:16;100098.47;;;27.54;52.14
60258;BME280;46115;44.484;11.314;2023-05-23T07:56:19;100094.63;;;28.41;49.65
60258;BME280;46115;44.484;11.314;2023-05-23T08:00:23;100092.13;;;27.90;50.92
60258;BME280;46115;44.484;11.314;2023-05-23T08:04:31;100089.75;;;28.71;48.72
60258;BME280;46115;44.484;11.314;2023-05-23T08:08:34;100093.09;;;28.32;49.13
60258;BME280;46115;44.484;11.314;2023-05-23T08:12:39;100086.22;;;28.70;48.92
60258;BME280;46115;44.484;11.314;2023-05-23T08:16:48;100090.84;;;29.24;48.03
60258;BME280;46115;44.484;11.314;2023-05-23T08:20:55;100084.38;;;29.32;47.88
60258;BME280;46115;44.484;11.314;2023-05-23T08:24:58;100082.97;;;28.88;49.26
60258;BME280;46115;44.484;11.314;2023-05-23T08:29:03;100075.16;;;29.33;48.69
60258;BME280;46115;44.484;11.314;2023-05-23T08:33:08;100083.81;;;29.69;48.04
60258;BME280;46115;44.484;11.314;2023-05-23T08:37:12;100085.09;;;29.87;47.38
60258;BME280;46115;44.484;11.314;2023-05-23T08:41:18;100082.59;;;29.85;47.44
60258;BME280;46115;44.484;11.314;2023-05-23T08:45:23;100089.22;;;30.68;45.15
60258;BME280;46115;44.484;11.314;2023-05-23T08:49:27;100079.66;;;30.20;45.46
60258;BME280;46115;44.484;11.314;2023-05-23T08:53:30;100084.19;;;30.59;44.91
60258;BME280;46115;44.484;11.314;2023-05-23T08:57:39;100083.34;;;30.52;45.68
60258;BME280;46115;44.484;11.314;2023-05-23T09:01:59;100075.66;;;30.09;45.25
60258;BME280;46115;44.484;11.314;2023-05-23T09:06:05;100077.34;;;29.64;46.64
60258;BME280;46115;44.484;11.314;2023-05-23T09:10:09;100083.00;;;30.28;45.62
60258;BME280;46115;44.484;11.314;2023-05-23T09:14:12;100072.31;;;29.67;45.08
60258;BME280;46115;44.484;11.314;2023-05-23T09:18:18;100082.38;;;29.93;45.01
60258;BME280;46115;44.484;11.314;2023-05-23T09:22:26;100085.59;;;30.88;43.81
60258;BME280;46115;44.484;11.314;2023-05-23T09:26:37;100080.53;;;30.85;42.42
60258;BME280;46115;44.484;11.314;2023-05-23T09:30:40;100070.06;;;30.82;42.62
60258;BME280;46115;44.484;11.314;2023-05-23T09:34:54;100068.34;;;30.94;43.25
60258;BME280;46115;44.484;11.314;2023-05-23T09:39:01;100072.19;;;30.73;41.53
60258;BME280;46115;44.484;11.314;2023-05-23T09:43:04;100053.53;;;29.11;43.42
60258;BME280;46115;44.484;11.314;2023-05-23T09:47:07;100056.38;;;29.71;43.99
60258;BME280;46115;44.484;11.314;2023-05-23T09:51:09;100056.59;;;29.89;44.76
60258;BME280;46115;44.484;11.314;2023-05-23T09:55:13;100060.91;;;29.31;43.91
60258;BME280;46115;44.484;11.314;2023-05-23T09:59:16;100026.16;;;29.33;43.72
60258;BME280;46115;44.484;11.314;2023-05-23T10:03:30;100048.13;;;29.25;45.66
60258;BME280;46115;44.484;11.314;2023-05-23T10:07:35;100039.78;;;29.33;44.25
60258;BME280;46115;44.484;11.314;2023-05-23T10:16:27;100037.84;;;29.13;44.95
60258;BME280;46115;44.484;11.314;2023-05-23T10:20:33;100015.28;;;29.39;40.56
60258;BME280;46115;44.484;11.314;2023-05-23T10:24:37;100037.69;;;29.35;41.85
60258;BME280;46115;44.484;11.314;2023-05-23T10:28:40;100042.09;;;28.34;43.78
60258;BME280;46115;44.484;11.314;2023-05-23T10:32:44;100036.25;;;28.37;44.24
60258;BME280;46115;44.484;11.314;2023-05-23T10:36:54;100033.22;;;29.01;43.75
60258;BME280;46115;44.484;11.314;2023-05-23T10:41:00;100037.88;;;28.24;45.71
60258;BME280;46115;44.484;11.314;2023-05-23T10:45:14;100022.66;;;28.09;46.56
60258;BME280;46115;44.484;11.314;2023-05-23T10:49:18;100034.09;;;27.98;46.47
60258;BME280;46115;44.484;11.314;2023-05-23T10:53:22;100036.53;;;28.48;46.69
60258;BME280;46115;44.484;11.314;2023-05-23T10:57:25;100030.34;;;27.71;46.76
60258;BME280;46115;44.484;11.314;2023-05-23T11:01:28;100025.41;;;27.59;46.65
60258;BME280;46115;44.484;11.314;2023-05-23T11:05:32;100021.03;;;27.37;46.06
60258;BME280;46115;44.484;11.314;2023-05-23T11:10:03;100020.31;;;27.71;44.78
60258;BME280;46115;44.484;11.314;2023-05-23T11:14:05;100006.91;;;27.42;46.48
60258;BME280;46115;44.484;11.314;2023-05-23T11:18:08;100014.06;;;27.49;45.66
60258;BME280;46115;44.484;11.314;2023-05-23T11:22:13;100013.28;;;27.77;46.26
60258;BME280;46115;44.484;11.314;2023-05-23T11:26:28;100004.19;;;27.63;45.56
60258;BME280;46115;44.484;11.314;2023-05-23T11:30:31;99957.91;;;27.50;43.25
60258;BME280;46115;44.484;11.314;2023-05-23T11:34:33;100005.53;;;27.52;41.98
60258;BME280;46115;44.484;11.314;2023-05-23T11:38:37;100001.44;;;28.19;40.52
60258;BME280;46115;44.484;11.314;2023-05-23T11:42:40;100001.78;;;28.09;40.20
60258;BME280;46115;44.484;11.314;2023-05-23T11:46:58;99994.06;;;27.57;40.35
60258;BME280;46115;44.484;11.314;2023-05-23T11:51:00;99987.13;;;27.26;43.89
60258;BME280;46115;44.484;11.314;2023-05-23T11:55:05;99993.66;;;27.81;44.36
60258;BME280;46115;44.484;11.314;2023-05-23T11:59:08;99983.78;;;27.74;43.64
60258;BME280;46115;44.484;11.314;2023-05-23T12:03:11;99986.13;;;27.77;41.98
60258;BME280;46115;44.484;11.314;2023-05-23T12:07:13;99974.63;;;27.53;42.14
60258;BME280;46115;44.484;11.314;2023-05-23T12:11:17;99973.59;;;27.33;42.80
60258;BME280;46115;44.484;11.314;2023-05-23T12:15:24;99976.50;;;27.53;41.82
60258;BME280;46115;44.484;11.314;2023-05-23T12:19:27;99965.06;;;27.36;41.99
60258;BME280;46115;44.484;11.314;2023-05-23T12:23:29;99962.88;;;27.46;43.59
60258;BME280;46115;44.484;11.314;2023-05-23T12:27:34;99960.94;;;27.61;42.80
60258;BME280;46115;44.484;11.314;2023-05-23T12:31:37;99945.91;;;27.93;44.37
60258;BME280;46115;44.484;11.314;2023-05-23T12:35:42;99936.09;;;27.64;42.93
60258;BME280;46115;44.484;11.314;2023-05-23T12:39:44;99942.41;;;28.06;42.66
60258;BME280;46115;44.484;11.314;2023-05-23T12:43:52;99913.84;;;27.76;44.82
60258;BME280;46115;44.484;11.314;2023-05-23T12:47:55;99923.06;;;27.53;43.69
60258;BME280;46115;44.484;11.314;2023-05-23T12:51:58;99931.06;;;27.61;43.37
60258;BME280;46115;44.484;11.314;2023-05-23T12:56:00;99917.91;;;27.09;43.81
60258;BME280;46115;44.484;11.314;2023-05-23T13:00:05;99913.31;;;27.10;43.41
60258;BME280;46115;44.484;11.314;2023-05-23T13:04:08;99913.84;;;27.26;44.34
60258;BME280;46115;44.484;11.314;2023-05-23T13:08:10;99910.41;;;27.11;43.39
60258;BME280;46115;44.484;11.314;2023-05-23T13:12:13;99899.25;;;27.27;42.45
60258;BME280;46115;44.484;11.314;2023-05-23T13:16:17;99898.03;;;27.30;45.33
60258;BME280;46115;44.484;11.314;2023-05-23T13:20:19;99891.84;;;27.15;40.93
60258;BME280;46115;44.484;11.314;2023-05-23T13:24:22;99890.19;;;27.42;41.37
60258;BME280;46115;44.484;11.314;2023-05-23T13:28:24;99884.44;;;27.30;41.14
60258;BME280;46115;44.484;11.314;2023-05-23T13:32:28;99875.22;;;27.52;41.97
60258;BME280;46115;44.484;11.314;2023-05-23T13:36:31;99867.44;;;27.43;41.02
60258;BME280;46115;44.484;11.314;2023-05-23T13:40:33;99862.31;;;27.61;41.04
60258;BME280;46115;44.484;11.314;2023-05-23T13:44:36;99849.53;;;27.48;42.41
60258;BME280;46115;44.484;11.314;2023-05-23T13:48:39;99849.66;;;27.40;41.64
60258;BME280;46115;44.484;11.314;2023-05-23T13:52:42;99851.22;;;27.56;42.37
60258;BME280;46115;44.484;11.314;2023-05-23T13:56:44;99843.41;;;27.74;42.55
60258;BME280;46115;44.484;11.314;2023-05-23T14:00:46;99846.91;;;27.33;42.67
60258;BME280;46115;44.484;11.314;2023-05-23T14:04:50;99850.66;;;26.83;42.99
60258;BME280;46115;44.484;11.314;2023-05-23T14:08:52;99852.47;;;26.76;42.28
60258;BME280;46115;44.484;11.314;2023-05-23T14:12:55;99852.53;;;27.04;42.59
60258;BME280;46115;44.484;11.314;2023-05-23T14:16:58;99841.25;;;26.79;42.57
60258;BME280;46115;44.484;11.314;2023-05-23T14:21:02;99848.84;;;26.90;41.66
60258;BME280;46115;44.484;11.314;2023-05-23T14:25:05;99839.63;;;26.85;42.21
60258;BME280;46115;44.484;11.314;2023-05-23T14:29:07;99842.28;;;26.78;41.94
60258;BME280;46115;44.484;11.314;2023-05-23T14:33:09;99840.31;;;26.93;42.82
60258;BME280;46115;44.484;11.314;2023-05-23T14:37:13;99841.19;;;27.22;42.20
60258;BME280;46115;44.484;11.314;2023-05-23T14:41:16;99839.88;;;27.11;42.15
60258;BME280;46115;44.484;11.314;2023-05-23T14:45:18;99835.28;;;27.12;42.99
60258;BME280;46115;44.484;11.314;2023-05-23T14:49:20;99839.44;;;27.08;43.57
60258;BME280;46115;44.484;11.314;2023-05-23T14:53:24;99846.38;;;27.17;44.24
60258;BME280;46115;44.484;11.314;2023-05-23T14:57:27;99847.69;;;26.99;42.34
60258;BME280;46115;44.484;11.314;2023-05-23T15:01:29;99843.72;;;27.23;42.18
60258;BME280;46115;44.484;11.314;2023-05-23T15:05:32;99846.38;;;26.95;44.17
60258;BME280;46115;44.484;11.314;2023-05-23T15:09:36;99840.69;;;26.90;41.64
60258;BME280;46115;44.484;11.314;2023-05-23T15:13:38;99845.72;;;26.93;42.72
60258;BME280;46115;44.484;11.314;2023-05-23T15:17:40;99835.97;;;27.20;42.04
60258;BME280;46115;44.484;11.314;2023-05-23T15:21:42;99838.38;;;26.87;42.80
60258;BME280;46115;44.484;11.314;2023-05-23T15:25:46;99827.66;;;27.00;42.87
60258;BME280;46115;44.484;11.314;2023-05-23T15:29:49;99826.50;;;27.10;42.73
60258;BME280;46115;44.484;11.314;2023-05-23T15:33:51;99828.63;;;27.14;43.53
60258;BME280;46115;44.484;11.314;2023-05-23T15:37:53;99829.69;;;27.20;41.92
60258;BME280;46115;44.484;11.314;2023-05-23T15:41:58;99816.69;;;26.87;43.25
60258;BME280;46115;44.484;11.314;2023-05-23T15:46:01;99822.28;;;27.35;42.67
60258;BME280;46115;44.484;11.314;2023-05-23T15:50:04;99821.63;;;27.33;42.58
60258;BME280;46115;44.484;11.314;2023-05-23T15:54:07;99818.38;;;26.67;42.59
60258;BME280;46115;44.484;11.314;2023-05-23T15:58:11;99823.44;;;26.98;43.04
60258;BME280;46115;44.484;11.314;2023-05-23T16:02:13;99817.78;;;26.93;41.70
60258;BME280;46115;44.484;11.314;2023-05-23T16:06:18;99816.31;;;26.69;42.43
60258;BME280;46115;44.484;11.314;2023-05-23T16:10:21;99809.28;;;26.75;43.86
60258;BME280;46115;44.484;11.314;2023-05-23T16:14:25;99810.63;;;26.64;43.01
60258;BME280;46115;44.484;11.314;2023-05-23T16:18:28;99813.69;;;26.76;43.19
60258;BME280;46115;44.484;11.314;2023-05-23T16:22:30;99815.00;;;26.86;42.16
60258;BME280;46115;44.484;11.314;2023-05-23T16:26:32;99818.66;;;26.72;41.98
60258;BME280;46115;44.484;11.314;2023-05-23T16:30:36;99820.13;;;26.53;42.26
60258;BME280;46115;44.484;11.314;2023-05-23T16:34:38;99817.56;;;26.45;43.33
60258;BME280;46115;44.484;11.314;2023-05-23T16:38:40;99818.53;;;26.59;42.59
60258;BME280;46115;44.484;11.314;2023-05-23T16:42:43;99800.75;;;26.78;41.80
60258;BME280;46115;44.484;11.314;2023-05-23T16:46:47;99819.59;;;26.64;41.29
60258;BME280;46115;44.484;11.314;2023-05-23T16:50:49;99824.09;;;26.72;41.86
60258;BME280;46115;44.484;11.314;2023-05-23T16:54:51;99824.13;;;26.57;42.44
60258;BME280;46115;44.484;11.314;2023-05-23T16:58:55;99841.34;;;26.71;42.02
60258;BME280;46115;44.484;11.314;2023-05-23T17:02:59;99828.53;;;26.37;42.39
60258;BME280;46115;44.484;11.314;2023-05-23T17:07:01;99826.41;;;26.54;41.86
60258;BME280;46115;44.484;11.314;2023-05-23T17:11:03;99837.31;;;26.60;41.03
60258;BME280;46115;44.484;11.314;2023-05-23T17:15:07;99835.13;;;26.49;42.05
60258;BME280;46115;44.484;11.314;2023-05-23T17:19:11;99834.13;;;26.35;42.31
60258;BME280;46115;44.484;11.314;2023-05-23T17:23:13;99840.94;;;26.31;42.94
60258;BME280;46115;44.484;11.314;2023-05-23T17:27:16;99845.44;;;26.24;43.17
60258;BME280;46115;44.484;11.314;2023-05-23T17:31:18;99850.25;;;26.07;43.14
60258;BME280;46115;44.484;11.314;2023-05-23T17:35:23;99850.44;;;26.06;43.48
60258;BME280;46115;44.484;11.314;2023-05-23T17:39:25;99818.06;;;25.83;44.30
60258;BME280;46115;44.484;11.314;2023-05-23T17:43:27;99869.59;;;26.04;45.32
60258;BME280;46115;44.484;11.314;2023-05-23T17:47:29;99867.81;;;25.97;45.65
60258;BME280;46115;44.484;11.314;2023-05-23T17:51:33;99874.91;;;26.13;45.66
60258;BME280;46115;44.484;11.314;2023-05-23T17:55:36;99878.47;;;25.84;46.61
60258;BME280;46115;44.484;11.314;2023-05-23T17:59:38;99884.94;;;25.68;48.26
60258;BME280;46115;44.484;11.314;2023-05-23T18:03:40;99894.13;;;25.44;49.73
60258;BME280;46115;44.484;11.314;2023-05-23T18:07:44;99893.38;;;25.50;50.17
60258;BME280;46115;44.484;11.314;2023-05-23T18:11:47;99890.06;;;25.25;51.62
60258;BME280;46115;44.484;11.314;2023-05-23T18:15:49;99891.59;;;25.42;51.15
60258;BME280;46115;44.484;11.314;2023-05-23T18:19:52;99887.97;;;24.89;52.80
60258;BME280;46115;44.484;11.314;2023-05-23T18:23:55;99895.88;;;25.37;51.74
60258;BME280;46115;44.484;11.314;2023-05-23T18:27:58;99893.38;;;24.89;53.62
60258;BME280;46115;44.484;11.314;2023-05-23T18:32:01;99894.28;;;24.36;55.90
60258;BME280;46115;44.484;11.314;2023-05-23T18:36:03;99899.09;;;24.49;55.55
60258;BME280;46115;44.484;11.314;2023-05-23T18:40:08;99906.41;;;24.40;56.72
60258;BME280;46115;44.484;11.314;2023-05-23T18:44:11;99902.75;;;24.33;56.79
60258;BME280;46115;44.484;11.314;2023-05-23T18:48:13;99905.78;;;24.30;58.04
60258;BME280;46115;44.484;11.314;2023-05-23T18:52:16;99898.63;;;24.06;60.18
60258;BME280;46115;44.484;11.314;2023-05-23T18:56:19;99908.53;;;23.50;61.40
60258;BME280;46115;44.484;11.314;2023-05-23T19:00:23;99916.00;;;23.32;62.48
60258;BME280;46115;44.484;11.314;2023-05-23T19:04:25;99917.66;;;23.17;64.00
60258;BME280;46115;44.484;11.314;2023-05-23T19:08:28;99901.19;;;22.95;65.06
60258;BME280;46115;44.484;11.314;2023-05-23T19:12:32;99924.88;;;22.76;66.79
60258;BME280;46115;44.484;11.314;2023-05-23T19:16:35;99912.06;;;22.78;65.33
60258;BME280;46115;44.484;11.314;2023-05-23T19:20:37;99929.28;;;23.17;62.59
60258;BME280;46115;44.484;11.314;2023-05-23T19:24:40;99925.09;;;23.15;62.28
60258;BME280;46115;44.484;11.314;2023-05-23T19:28:44;99943.28;;;23.21;62.12
60258;BME280;46115;44.484;11.314;2023-05-23T19:32:46;99943.28;;;23.05;62.73
60258;BME280;46115;44.484;11.314;2023-05-23T22:06:08;99978.16;;;20.37;68.52
60258;BME280;46115;44.484;11.314;2023-05-23T22:10:10;99974.41;;;20.58;68.00
60258;BME280;46115;44.484;11.314;2023-05-23T22:14:13;99980.28;;;20.34;68.82
60258;BME280;46115;44.484;11.314;2023-05-23T22:18:15;99982.53;;;20.48;68.30
60258;BME280;46115;44.484;11.314;2023-05-23T22:22:19;99986.78;;;20.41;68.11
60258;BME280;46115;44.484;11.314;2023-05-23T22:26:21;99987.81;;;20.58;68.22
60258;BME280;46115;44.484;11.314;2023-05-23T22:30:24;99992.94;;;20.51;67.98
60258;BME280;46115;44.484;11.314;2023-05-23T22:34:26;99991.97;;;20.52;68.17
60258;BME280;46115;44.484;11.314;2023-05-23T22:38:31;99989.84;;;20.46;68.64
60258;BME280;46115;44.484;11.314;2023-05-23T22:42:33;99979.28;;;20.35;68.83
60258;BME280;46115;44.484;11.314;2023-05-23T22:46:35;99980.59;;;20.31;69.06
60258;BME280;46115;44.484;11.314;2023-05-23T22:50:39;99987.16;;;20.46;68.16
60258;BME280;46115;44.484;11.314;2023-05-23T22:54:42;99977.81;;;20.22;68.75
60258;BME280;46115;44.484;11.314;2023-05-23T22:58:45;99973.19;;;20.15;68.68
60258;BME280;46115;44.484;11.314;2023-05-23T23:02:47;99985.66;;;20.34;67.86
60258;BME280;46115;44.484;11.314;2023-05-23T23:06:49;99979.72;;;20.03;68.13
60258;BME280;46115;44.484;11.314;2023-05-23T23:10:54;99975.59;;;20.08;67.92
60258;BME280;46115;44.484;11.314;2023-05-23T23:14:57;99975.91;;;20.05;68.06
60258;BME280;46115;44.484;11.314;2023-05-23T23:18:59;99964.63;;;20.02;67.82
60258;BME280;46115;44.484;11.314;2023-05-23T23:23:02;99972.13;;;19.98;68.71
60258;BME280;46115;44.484;11.314;2023-05-23T23:27:06;99967.28;;;20.02;68.54
60258;BME280;46115;44.484;11.314;2023-05-23T23:31:08;99969.47;;;19.88;69.25
60258;BME280;46115;44.484;11.314;2023-05-23T23:35:11;99958.66;;;19.80;69.46
60258;BME280;46115;44.484;11.314;2023-05-23T23:39:13;99973.16;;;19.87;69.74